Time;durP1;ratioP1;P1;durP2;ratioP2;P2;SDS_P1;SDS_P2;PMS_P1;PMS_P2;Temp;Humidity;BMP_temperature;BMP_pressure;BME280_temperature;BME280_humidity;BME280_pressure;Samples;Min_cycle;Max_cycle;Signal;HPM_P1;HPM_P2
2023/09/02 00:01:18;;;;;;;6.18;1.77;;;17.50;99.90;;;;;;6156484;22;87997;-76
2023/09/02 00:03:44;;;;;;;4.88;1.52;;;17.50;99.90;;;;;;6158472;22;86189;-76
2023/09/02 00:06:10;;;;;;;3.08;1.67;;;17.50;99.90;;;;;;6157743;22;86611;-76
2023/09/02 00:08:35;;;;;;;5.15;1.83;;;17.50;99.90;;;;;;6157529;22;85843;-76
2023/09/02 00:11:01;;;;;;;5.47;1.58;;;17.50;99.90;;;;;;6157315;22;87261;-76
2023/09/02 00:13:27;;;;;;;3.20;1.50;;;17.50;99.90;;;;;;6156106;22;86769;-76
2023/09/02 00:15:52;;;;;;;2.80;1.45;;;17.50;99.90;;;;;;6157632;22;86219;-76
2023/09/02 00:18:18;;;;;;;7.55;1.52;;;17.50;99.90;;;;;;6156736;22;86497;-76
2023/09/02 00:20:44;;;;;;;4.30;1.80;;;17.40;99.90;;;;;;6155990;22;86917;-76
2023/09/02 00:23:10;;;;;;;5.40;2.10;;;17.40;99.90;;;;;;6156911;22;86606;-76
2023/09/02 00:25:36;;;;;;;5.60;1.65;;;17.40;99.90;;;;;;6156498;22;86709;-76
2023/09/02 00:28:02;;;;;;;2.83;1.70;;;17.40;99.90;;;;;;6156918;22;85775;-76
2023/09/02 00:30:27;;;;;;;4.00;1.75;;;17.40;99.90;;;;;;6154384;22;90170;-76
2023/09/02 00:32:53;;;;;;;4.78;1.60;;;17.30;99.90;;;;;;6156649;22;86653;-76
2023/09/02 00:35:19;;;;;;;4.22;1.70;;;17.30;99.90;;;;;;6143822;22;86264;-76
2023/09/02 00:37:44;;;;;;;4.82;1.90;;;17.30;99.90;;;;;;6156471;22;86274;-76
2023/09/02 00:40:14;;;;;;;2.60;1.50;;;17.20;99.90;;;;;;6157950;22;87053;-76
2023/09/02 00:42:41;;;;;;;9.73;1.52;;;17.20;99.90;;;;;;6156566;22;91013;-76
2023/09/02 00:45:07;;;;;;;6.78;1.90;;;17.10;99.90;;;;;;6156716;22;85673;-76
2023/09/02 00:47:33;;;;;;;4.35;1.65;;;17.10;99.90;;;;;;6156325;22;86166;-76
2023/09/02 00:50:00;;;;;;;4.95;1.50;;;17.00;99.90;;;;;;6155591;22;87252;-76
2023/09/02 00:52:25;;;;;;;4.93;1.55;;;17.10;99.90;;;;;;6156475;22;86192;-76
2023/09/02 00:54:51;;;;;;;2.92;1.52;;;17.00;99.90;;;;;;6157922;22;86176;-76
2023/09/02 00:57:17;;;;;;;8.00;1.60;;;17.00;99.90;;;;;;6155473;22;86187;-76
2023/09/02 00:59:43;;;;;;;3.08;1.40;;;16.90;99.90;;;;;;6155759;22;85656;-76
2023/09/02 01:02:09;;;;;;;5.15;2.00;;;16.90;99.90;;;;;;6154225;22;89659;-76
2023/09/02 01:04:36;;;;;;;5.78;1.90;;;16.90;99.90;;;;;;6156452;22;85720;-76
2023/09/02 01:07:02;;;;;;;2.40;1.33;;;16.80;99.90;;;;;;6157942;22;86179;-76
2023/09/02 01:09:30;;;;;;;3.70;1.30;;;16.80;99.90;;;;;;6156267;22;87012;-76
2023/09/02 01:11:56;;;;;;;4.28;1.27;;;16.80;99.90;;;;;;6156301;22;87184;-76
2023/09/02 01:14:22;;;;;;;6.53;1.70;;;16.80;99.90;;;;;;6156388;22;86224;-76
2023/09/02 01:16:48;;;;;;;4.63;1.63;;;16.80;99.90;;;;;;6154690;22;86039;-76
2023/09/02 01:19:18;;;;;;;4.10;1.33;;;16.70;99.90;;;;;;6156751;22;86981;-76
2023/09/02 01:22:15;;;;;;;5.72;1.55;;;16.70;99.90;;;;;;6156417;22;90911;-76
2023/09/02 01:24:50;;;;;;;9.02;1.80;;;16.70;99.90;;;;;;6156167;22;87202;-76
2023/09/02 01:28:06;;;;;;;6.25;1.60;;;16.60;99.90;;;;;;6156243;22;86333;-76
2023/09/02 01:30:34;;;;;;;4.57;1.85;;;16.60;99.90;;;;;;6151442;22;87519;-76
2023/09/02 01:33:03;;;;;;;2.92;1.20;;;16.50;99.90;;;;;;6156079;22;87481;-76
2023/09/02 01:35:33;;;;;;;6.55;2.20;;;16.50;99.90;;;;;;6156478;22;86311;-76
2023/09/02 01:38:03;;;;;;;6.75;1.45;;;16.50;99.90;;;;;;6159044;22;86363;-76
2023/09/02 01:40:30;;;;;;;4.97;1.02;;;16.40;99.90;;;;;;6168963;22;90413;-75
2023/09/02 01:42:58;;;;;;;2.75;1.02;;;16.40;99.90;;;;;;6156866;22;86765;-76
2023/09/02 01:45:27;;;;;;;4.57;1.17;;;16.40;99.90;;;;;;6153675;22;86465;-76
2023/09/02 01:47:53;;;;;;;5.53;1.67;;;16.40;99.90;;;;;;6157406;22;86355;-76
2023/09/02 01:50:22;;;;;;;4.43;1.67;;;16.30;99.90;;;;;;6157446;22;87172;-76
2023/09/02 01:52:48;;;;;;;5.53;1.45;;;16.30;99.90;;;;;;6156136;22;86558;-76
2023/09/02 01:55:16;;;;;;;3.90;1.30;;;16.30;99.90;;;;;;6158394;22;85925;-76
2023/09/02 01:57:42;;;;;;;5.30;1.95;;;16.30;99.90;;;;;;6157891;22;86463;-76
2023/09/02 02:00:11;;;;;;;4.80;1.80;;;16.20;99.90;;;;;;6157867;22;86079;-76
2023/09/02 02:02:38;;;;;;;4.53;1.60;;;16.20;99.90;;;;;;6157781;22;86667;-76
2023/09/02 02:05:19;;;;;;;5.45;1.20;;;16.20;99.90;;;;;;6157963;22;86252;-76
2023/09/02 02:07:53;;;;;;;4.13;1.42;;;16.20;99.90;;;;;;6158418;22;85863;-76
2023/09/02 02:10:23;;;;;;;4.07;0.95;;;16.10;99.90;;;;;;6158757;22;87450;-76
2023/09/02 02:12:49;;;;;;;4.13;1.40;;;16.10;99.90;;;;;;6158073;22;86165;-76
2023/09/02 02:15:15;;;;;;;4.43;1.50;;;16.10;99.90;;;;;;6158557;22;86355;-76
2023/09/02 02:17:41;;;;;;;3.95;1.17;;;16.10;99.90;;;;;;6159056;22;86516;-76
2023/09/02 02:20:11;;;;;;;8.18;1.45;;;16.10;99.90;;;;;;6157930;22;87243;-76
2023/09/02 02:22:37;;;;;;;3.13;1.40;;;16.00;99.90;;;;;;6157831;22;87217;-76
2023/09/02 02:25:03;;;;;;;3.70;1.27;;;16.00;99.90;;;;;;6157216;22;85990;-76
2023/09/02 02:27:29;;;;;;;4.50;1.58;;;16.00;99.90;;;;;;6191991;22;86437;-76
2023/09/02 02:29:58;;;;;;;7.63;1.70;;;15.90;99.90;;;;;;6157146;22;87766;-76
2023/09/02 02:32:24;;;;;;;3.20;1.20;;;15.90;99.90;;;;;;6155453;22;89639;-76
2023/09/02 02:34:54;;;;;;;5.22;1.40;;;15.90;99.90;;;;;;6158187;22;88568;-77
2023/09/02 02:37:19;;;;;;;6.88;1.52;;;15.80;99.90;;;;;;6157036;22;85995;-76
2023/09/02 02:39:47;;;;;;;6.78;1.58;;;15.80;99.90;;;;;;6157442;22;86990;-76
2023/09/02 02:42:20;;;;;;;7.28;1.50;;;15.80;99.90;;;;;;6156477;22;86446;-76
2023/09/02 02:44:46;;;;;;;5.95;1.35;;;15.80;99.90;;;;;;6156231;22;87154;-76
2023/09/02 02:47:19;;;;;;;4.10;1.02;;;15.80;99.90;;;;;;6156768;22;85916;-76
2023/09/02 02:49:47;;;;;;;5.25;1.05;;;15.80;99.90;;;;;;6156921;22;87773;-76
2023/09/02 02:52:13;;;;;;;4.07;1.30;;;15.70;99.90;;;;;;6158353;22;86961;-77
2023/09/02 02:54:44;;;;;;;4.65;1.10;;;15.70;99.90;;;;;;6157536;22;86150;-76
2023/09/02 02:57:10;;;;;;;4.28;1.35;;;15.70;99.90;;;;;;6157812;22;86077;-76
2023/09/02 02:59:36;;;;;;;2.05;1.13;;;15.70;99.90;;;;;;6157384;22;87061;-76
2023/09/02 03:02:09;;;;;;;6.78;1.27;;;15.70;99.90;;;;;;6157113;22;86423;-77
2023/09/02 03:04:37;;;;;;;5.13;1.15;;;15.70;99.90;;;;;;6157763;22;86415;-76
2023/09/02 03:07:03;;;;;;;6.38;1.60;;;15.70;99.90;;;;;;6158158;22;86094;-76
2023/09/02 03:09:29;;;;;;;5.20;1.65;;;15.60;99.90;;;;;;6155044;22;90693;-76
2023/09/02 03:11:54;;;;;;;5.55;1.10;;;15.60;99.90;;;;;;6157088;22;86619;-76
2023/09/02 03:14:20;;;;;;;5.82;1.30;;;15.60;99.90;;;;;;6157652;22;86204;-76
2023/09/02 03:16:46;;;;;;;6.93;1.42;;;15.60;99.90;;;;;;6158023;22;85913;-76
2023/09/02 03:19:11;;;;;;;6.35;1.40;;;15.50;99.90;;;;;;6158433;22;87362;-76
2023/09/02 03:21:37;;;;;;;2.65;1.20;;;15.50;99.90;;;;;;6157418;22;86591;-76
2023/09/02 03:24:04;;;;;;;6.40;1.15;;;15.50;99.90;;;;;;6157411;22;86085;-76
2023/09/02 03:26:29;;;;;;;9.60;1.23;;;15.50;99.90;;;;;;6155671;22;93688;-76
2023/09/02 03:28:55;;;;;;;5.20;1.65;;;15.50;99.90;;;;;;6157624;22;86083;-76
2023/09/02 03:31:21;;;;;;;7.80;1.45;;;15.50;99.90;;;;;;6157125;22;86401;-76
2023/09/02 03:33:46;;;;;;;15.80;1.70;;;15.50;99.90;;;;;;6159380;22;86359;-76
2023/09/02 03:36:19;;;;;;;11.02;1.35;;;15.50;99.90;;;;;;6157545;22;86154;-76
2023/09/02 03:38:46;;;;;;;8.60;1.40;;;15.50;99.90;;;;;;6158380;22;87173;-76
2023/09/02 03:41:31;;;;;;;6.70;1.40;;;15.50;99.90;;;;;;6156948;22;86851;-76
2023/09/02 03:43:56;;;;;;;7.15;1.40;;;15.40;99.90;;;;;;6156992;22;86183;-76
2023/09/02 03:46:29;;;;;;;6.32;1.80;;;15.40;99.90;;;;;;6157824;22;86017;-76
2023/09/02 03:49:03;;;;;;;5.03;1.25;;;15.50;99.90;;;;;;6159142;22;86507;-76
2023/09/02 03:51:38;;;;;;;9.15;1.70;;;15.50;99.90;;;;;;6157682;22;85858;-76
2023/09/02 03:54:06;;;;;;;7.63;1.30;;;15.50;99.90;;;;;;6187238;22;85796;-76
2023/09/02 03:56:36;;;;;;;4.70;1.13;;;15.50;99.90;;;;;;6157553;22;86348;-75
2023/09/02 03:59:08;;;;;;;7.00;2.00;;;15.50;99.90;;;;;;6162358;22;88539;-76
2023/09/02 04:01:34;;;;;;;4.95;1.15;;;15.50;99.90;;;;;;6178467;22;86384;-76
2023/09/02 04:04:00;;;;;;;4.97;1.58;;;15.50;99.90;;;;;;6199877;22;86202;-76
2023/09/02 04:06:28;;;;;;;4.57;1.20;;;15.50;99.90;;;;;;6159183;22;86109;-76
2023/09/02 04:08:56;;;;;;;8.43;1.75;;;15.50;99.90;;;;;;6144771;22;87894;-76
2023/09/02 04:11:25;;;;;;;10.63;1.60;;;15.40;99.90;;;;;;6156105;22;89745;-76
2023/09/02 04:14:06;;;;;;;4.22;1.50;;;15.40;99.90;;;;;;6143323;22;85804;-76
2023/09/02 04:16:41;;;;;;;;;;;;;;;;;;;;;
2023/09/02 04:19:12;;;;;;;3.35;1.33;;;15.50;99.90;;;;;;6158461;22;115306;-76
2023/09/02 04:21:40;;;;;;;7.25;1.85;;;15.50;99.90;;;;;;6145785;22;88805;-76
2023/09/02 04:24:08;;;;;;;6.35;1.40;;;15.50;99.90;;;;;;6146430;22;86103;-76
2023/09/02 04:26:37;;;;;;;9.32;1.58;;;15.50;99.90;;;;;;6158383;22;86324;-76
2023/09/02 04:29:05;;;;;;;6.18;1.48;;;15.50;99.90;;;;;;6156133;22;89177;-76
2023/09/02 04:31:56;;;;;;;;;;;;;;;;;;;;;
2023/09/02 04:34:33;;;;;;;4.78;1.33;;;15.50;99.90;;;;;;6188756;22;110880;-76
2023/09/02 04:37:04;;;;;;;7.45;2.20;;;15.50;99.90;;;;;;6159704;22;85808;-77
2023/09/02 04:39:32;;;;;;;3.30;1.20;;;15.50;99.90;;;;;;6146516;22;86913;-76
2023/09/02 04:42:03;;;;;;;5.35;1.70;;;15.40;99.90;;;;;;6185551;22;86834;-76
2023/09/02 04:44:34;;;;;;;2.85;1.25;;;15.40;99.90;;;;;;6178101;22;86409;-76
2023/09/02 04:46:59;;;;;;;7.95;2.42;;;15.40;99.90;;;;;;6174917;22;86427;-77
2023/09/02 04:49:27;;;;;;;12.27;1.73;;;15.40;99.90;;;;;;6158441;22;87003;-76
2023/09/02 04:51:53;;;;;;;12.40;1.83;;;15.30;99.90;;;;;;6158637;22;89928;-76
2023/09/02 04:54:19;;;;;;;15.75;2.47;;;15.30;99.90;;;;;;6159019;22;86253;-76
2023/09/02 04:56:47;;;;;;;7.93;1.58;;;15.30;99.90;;;;;;6181150;22;86169;-77
2023/09/02 04:59:15;;;;;;;6.72;1.95;;;15.30;99.90;;;;;;6170157;22;86165;-76
2023/09/02 05:01:41;;;;;;;7.30;1.92;;;15.30;99.90;;;;;;6146433;22;86139;-76
2023/09/02 05:04:06;;;;;;;13.40;2.00;;;15.30;99.90;;;;;;6161411;22;85717;-76
2023/09/02 05:06:37;;;;;;;5.60;2.00;;;15.20;99.90;;;;;;6148361;22;85793;-77
2023/09/02 05:09:03;;;;;;;12.02;3.05;;;15.20;99.90;;;;;;6162315;22;87446;-76
2023/09/02 05:11:28;;;;;;;25.45;2.78;;;15.20;99.90;;;;;;6160394;22;89808;-76
2023/09/02 05:13:54;;;;;;;21.75;4.65;;;15.10;99.90;;;;;;6162439;22;86564;-76
2023/09/02 05:16:22;;;;;;;9.93;2.15;;;15.20;99.90;;;;;;6181488;22;85964;-76
2023/09/02 05:18:48;;;;;;;4.95;1.65;;;15.20;99.90;;;;;;6207192;22;87462;-76
2023/09/02 05:21:50;;;;;;;12.98;2.10;;;15.20;99.90;;;;;;6191842;22;86593;-77
2023/09/02 05:24:25;;;;;;;8.38;2.40;;;15.10;99.90;;;;;;6143717;22;86056;-77
2023/09/02 05:27:10;;;;;;;7.80;1.92;;;15.10;99.90;;;;;;6145989;22;86132;-76
2023/09/02 05:29:43;;;;;;;8.40;2.08;;;15.20;99.90;;;;;;6157237;22;89480;-77
2023/09/02 05:32:12;;;;;;;13.40;3.40;;;15.20;99.90;;;;;;6156941;22;88164;-76
2023/09/02 05:35:07;;;;;;;12.52;2.65;;;15.20;99.90;;;;;;6176727;22;86311;-77
2023/09/02 05:37:57;;;;;;;;;;;;;;;;;;;;;
2023/09/02 05:40:35;;;;;;;6.97;2.20;;;15.30;99.90;;;;;;6144047;22;114309;-76
2023/09/02 05:43:11;;;;;;;7.88;2.10;;;15.30;99.90;;;;;;6178218;22;90136;-77
2023/09/02 05:45:47;;;;;;;10.18;2.25;;;15.30;99.90;;;;;;6157014;22;86190;-77
2023/09/02 05:48:12;;;;;;;8.10;2.28;;;15.40;99.90;;;;;;6156589;22;86157;-77
2023/09/02 05:50:38;;;;;;;10.05;2.13;;;15.40;99.90;;;;;;6157614;22;86301;-76
2023/09/02 05:53:09;;;;;;;7.18;2.38;;;15.40;99.90;;;;;;6158779;22;86437;-76
2023/09/02 05:55:59;;;;;;;7.70;2.30;;;15.50;99.90;;;;;;6147049;22;86071;-77
2023/09/02 05:58:26;;;;;;;10.40;2.38;;;15.50;99.90;;;;;;6146021;22;86262;-77
2023/09/02 06:01:00;;;;;;;9.27;2.50;;;15.50;99.90;;;;;;6211318;22;87491;-76
2023/09/02 06:03:47;;;;;;;13.27;4.07;;;15.50;99.90;;;;;;6192274;22;86370;-77
2023/09/02 06:06:14;;;;;;;12.48;2.97;;;15.60;99.90;;;;;;6193613;22;86183;-77
2023/09/02 06:08:48;;;;;;;10.48;3.47;;;15.70;99.90;;;;;;6180816;22;86101;-77
2023/09/02 06:11:19;;;;;;;6.63;3.47;;;15.70;99.90;;;;;;6163257;22;90655;-76
2023/09/02 06:13:53;;;;;;;8.93;3.30;;;15.70;99.90;;;;;;6167241;22;89412;-76
2023/09/02 06:16:19;;;;;;;11.68;3.50;;;15.80;99.90;;;;;;6156155;22;86226;-77
2023/09/02 06:18:47;;;;;;;5.47;3.00;;;15.90;99.90;;;;;;6158718;22;86092;-76
2023/09/02 06:21:27;;;;;;;;;;;;;;;;;;;;;
2023/09/02 06:24:05;;;;;;;10.68;3.33;;;16.00;99.90;;;;;;6142644;22;116890;-77
2023/09/02 06:27:05;;;;;;;;;;;;;;;;;;;;;
2023/09/02 06:29:56;;;;;;;13.88;4.50;;;16.20;99.90;;;;;;6143518;22;108968;-77
2023/09/02 06:32:25;;;;;;;16.63;3.83;;;16.20;99.90;;;;;;6144045;22;87710;-77
2023/09/02 06:34:58;;;;;;;10.32;4.13;;;16.30;99.90;;;;;;6151667;22;89564;-76
2023/09/02 06:37:32;;;;;;;;;;;16.40;99.90;;;;;;6177674;22;86100;-76
2023/09/02 06:40:18;;;;;;;7.35;3.53;;;16.40;99.90;;;;;;6206427;22;85630;-76
2023/09/02 06:42:44;;;;;;;16.45;5.15;;;16.50;99.90;;;;;;6155031;22;93137;-77
2023/09/02 06:45:37;;;;;;;13.65;4.63;;;16.60;99.90;;;;;;6155522;22;89773;-77
2023/09/02 06:48:03;;;;;;;10.77;3.90;;;16.80;99.90;;;;;;6156741;22;86058;-77
2023/09/02 06:50:28;;;;;;;13.82;4.53;;;16.90;99.90;;;;;;6155591;22;85878;-77
2023/09/02 06:52:57;;;;;;;9.65;3.88;;;17.00;99.90;;;;;;6155679;22;89354;-77
2023/09/02 06:55:23;;;;;;;7.97;3.92;;;17.10;99.90;;;;;;6155352;22;90020;-77
2023/09/02 06:57:48;;;;;;;13.88;4.40;;;17.20;99.90;;;;;;6157082;22;87079;-77
2023/09/02 07:00:17;;;;;;;10.43;4.10;;;17.30;99.90;;;;;;6156918;22;85797;-77
2023/09/02 07:02:43;;;;;;;7.75;3.63;;;17.40;99.90;;;;;;6157393;22;87345;-77
2023/09/02 07:05:09;;;;;;;9.27;3.50;;;17.50;99.90;;;;;;6155839;22;89444;-77
2023/09/02 07:07:37;;;;;;;7.07;3.75;;;17.60;99.90;;;;;;6152735;22;86195;-76
2023/09/02 07:10:12;;;;;;;7.18;3.03;;;17.60;99.90;;;;;;6160104;22;86181;-77
2023/09/02 07:12:38;;;;;;;8.73;3.55;;;17.80;99.90;;;;;;6142221;22;89146;-75
2023/09/02 09:51:22;;;;;;;;;;;;;;;;;;;;;
2023/09/02 09:54:50;;;;;;;;;;;;;;;;;;;;;
2023/09/02 10:38:52;;;;;;;2.72;0.88;;;28.60;80.30;;;;;;6014240;23;86207;-79
2023/09/02 10:45:31;;;;;;;;;;;;;;;;;;;;;
2023/09/02 10:48:38;;;;;;;1.80;0.80;;;28.30;81.40;;;;;;6077706;23;87691;-82
2023/09/02 10:52:02;;;;;;;5.85;1.23;;;28.50;81.30;;;;;;6052577;23;86311;-84
2023/09/02 10:58:29;;;;;;;;;;;;;;;;;;;;;
2023/09/02 11:01:02;;;;;;;1.95;0.73;;;29.30;75.80;;;;;;6046424;23;117834;-80
2023/09/02 11:03:44;;;;;;;;;;;29.20;77.50;;;;;;6063547;23;86340;-79
2023/09/02 11:06:12;;;;;;;2.28;0.75;;;29.20;80.60;;;;;;6086454;23;85982;-80
2023/09/02 11:08:46;;;;;;;1.42;0.52;;;29.40;81.70;;;;;;6073023;23;89897;-79
2023/09/02 11:11:12;;;;;;;2.90;0.50;;;29.70;79.90;;;;;;6062913;23;86513;-79
2023/09/02 11:14:08;;;;;;;1.42;0.70;;;29.90;78.10;;;;;;6089363;23;86439;-79
2023/09/02 11:16:35;;;;;;;2.47;0.88;;;30.10;76.70;;;;;;6073207;23;86499;-78
2023/09/02 11:19:50;;;;;;;;;;;;;;;;;;;;;
2023/09/02 11:23:14;;;;;;;2.35;0.57;;;30.50;78.90;;;;;;6074675;23;120715;-80
2023/09/02 11:26:16;;;;;;;2.58;0.68;;;30.70;76.10;;;;;;6044828;23;86162;-79
2023/09/02 11:28:59;;;;;;;;;;;;;;;;;;;;;
2023/09/02 11:32:24;;;;;;;2.15;0.50;;;30.90;74.10;;;;;;6064742;23;114649;-82
2023/09/02 11:34:51;;;;;;;1.20;0.40;;;31.00;71.40;;;;;;6036814;23;89737;-77
2023/09/02 11:37:30;;;;;;;1.10;0.30;;;31.20;73.60;;;;;;6084718;23;86293;-77
2023/09/02 11:39:56;;;;;;;3.28;0.70;;;31.50;73.60;;;;;;6101022;23;86249;-77
2023/09/02 11:42:22;;;;;;;1.55;0.80;;;31.90;72.10;;;;;;6075149;23;89885;-77
2023/09/02 11:44:51;;;;;;;1.48;0.60;;;32.20;73.80;;;;;;6100237;23;86627;-77
2023/09/02 11:47:17;;;;;;;8.80;0.70;;;32.40;75.30;;;;;;6101762;23;85925;-77
2023/09/02 11:49:44;;;;;;;3.22;0.55;;;32.80;71.60;;;;;;6100165;23;86166;-77
2023/09/02 11:52:09;;;;;;;1.98;0.70;;;32.90;68.80;;;;;;6074293;23;90467;-77
2023/09/02 11:54:39;;;;;;;1.02;0.70;;;33.00;64.20;;;;;;6101053;23;85837;-77
2023/09/02 11:57:05;;;;;;;3.15;0.45;;;32.90;63.60;;;;;;6073397;23;89172;-77
2023/09/02 11:59:30;;;;;;;0.60;0.40;;;33.00;71.50;;;;;;6100284;23;86269;-77
2023/09/02 12:02:07;;;;;;;3.83;0.70;;;33.30;68.40;;;;;;6098072;23;86080;-77
2023/09/02 12:04:40;;;;;;;1.65;0.50;;;33.40;62.70;;;;;;6098913;23;86840;-77
2023/09/02 12:07:07;;;;;;;1.20;0.30;;;33.50;67.00;;;;;;6100138;23;85655;-77
2023/09/02 12:09:35;;;;;;;3.05;0.40;;;33.50;61.40;;;;;;6099296;23;85810;-76
2023/09/02 12:12:01;;;;;;;0.93;0.30;;;33.10;57.90;;;;;;6073380;23;90034;-77
2023/09/02 12:14:28;;;;;;;0.95;0.30;;;32.90;59.70;;;;;;6094378;23;86042;-78
2023/09/02 12:16:58;;;;;;;3.63;0.68;;;32.80;59.10;;;;;;6072768;23;86415;-77
2023/09/02 12:19:24;;;;;;;0.47;0.35;;;32.90;61.20;;;;;;6099476;23;86272;-77
2023/09/02 12:21:50;;;;;;;1.10;0.47;;;33.20;59.30;;;;;;6101310;23;86377;-77
2023/09/02 12:24:16;;;;;;;3.25;0.43;;;33.20;59.80;;;;;;6066754;23;88191;-77
2023/09/02 12:27:13;;;;;;;0.40;0.30;;;33.20;61.50;;;;;;6101353;23;85914;-77
2023/09/02 12:29:41;;;;;;;0.75;0.35;;;33.30;58.00;;;;;;6073803;23;86786;-77
2023/09/02 12:32:09;;;;;;;1.73;0.40;;;33.30;59.70;;;;;;6068748;23;89636;-77
2023/09/02 12:34:38;;;;;;;1.85;0.30;;;33.40;58.80;;;;;;6073603;23;89064;-77
2023/09/02 12:37:14;;;;;;;1.92;0.40;;;33.40;58.10;;;;;;6100804;23;86003;-77
2023/09/02 12:39:40;;;;;;;1.10;0.40;;;33.60;58.00;;;;;;6099568;23;86256;-77
2023/09/02 12:42:22;;;;;;;1.77;0.30;;;33.60;57.40;;;;;;6099752;23;87378;-77
2023/09/02 12:44:53;;;;;;;4.35;0.40;;;33.60;58.10;;;;;;6101912;23;86480;-77
2023/09/02 12:47:23;;;;;;;1.30;0.43;;;33.60;60.30;;;;;;6098756;23;86077;-77
2023/09/02 12:49:51;;;;;;;0.65;0.25;;;33.80;62.10;;;;;;6102605;23;85865;-77
2023/09/02 12:52:20;;;;;;;1.30;0.43;;;34.30;61.70;;;;;;6100557;23;87480;-77
2023/09/02 12:54:55;;;;;;;1.80;0.47;;;34.60;55.60;;;;;;6099696;23;87128;-77
2023/09/02 12:57:23;;;;;;;1.55;0.50;;;34.30;54.90;;;;;;6101732;23;86310;-77
2023/09/02 12:59:49;;;;;;;0.82;0.40;;;34.10;58.10;;;;;;6099814;23;86236;-77
2023/09/02 13:02:15;;;;;;;0.80;0.35;;;34.30;57.70;;;;;;6100388;23;86872;-77
2023/09/02 13:04:41;;;;;;;1.92;0.40;;;34.30;55.40;;;;;;6099464;23;87328;-77
2023/09/02 13:07:07;;;;;;;2.85;0.50;;;34.20;55.90;;;;;;6100862;23;85813;-77
2023/09/02 13:09:33;;;;;;;2.10;0.40;;;34.10;58.80;;;;;;6101185;23;86615;-77
2023/09/02 13:11:59;;;;;;;1.85;0.38;;;34.20;58.00;;;;;;6101133;23;87802;-76
2023/09/02 13:14:32;;;;;;;1.63;0.30;;;34.30;56.30;;;;;;6068864;23;91370;-77
2023/09/02 13:17:00;;;;;;;3.88;0.35;;;34.70;60.70;;;;;;6094648;23;86345;-77
2023/09/02 13:19:25;;;;;;;0.52;0.40;;;35.10;55.70;;;;;;6097174;23;86024;-77
2023/09/02 13:21:52;;;;;;;1.77;0.30;;;35.10;52.60;;;;;;6098451;23;87090;-77
2023/09/02 13:24:20;;;;;;;3.58;0.55;;;34.70;51.10;;;;;;6097073;23;86431;-77
2023/09/02 13:26:47;;;;;;;1.13;0.30;;;34.30;54.70;;;;;;6074014;23;86109;-77
2023/09/02 13:29:28;;;;;;;;;;;;;;;;;;;;;
2023/09/02 13:31:59;;;;;;;1.25;0.40;;;34.40;56.10;;;;;;6091299;23;114369;-77
2023/09/02 13:34:30;;;;;;;4.20;0.40;;;34.60;53.60;;;;;;6100911;23;86200;-77
2023/09/02 13:37:20;;;;;;;1.83;0.30;;;34.70;54.80;;;;;;6099819;23;86389;-77
2023/09/02 13:39:46;;;;;;;2.10;0.32;;;34.50;54.40;;;;;;6099723;23;86460;-77
2023/09/02 13:42:18;;;;;;;1.55;0.20;;;34.30;54.20;;;;;;6097741;23;87810;-77
2023/09/02 13:44:47;;;;;;;1.33;0.30;;;34.20;55.70;;;;;;6097716;23;87266;-77
2023/09/02 13:47:36;;;;;;;1.23;0.40;;;34.10;54.40;;;;;;6059297;23;86148;-78
2023/09/02 13:50:50;;;;;;;2.75;0.50;;;34.10;52.80;;;;;;6083685;23;85914;-79
2023/09/02 13:53:57;;;;;;;1.17;0.40;;;34.00;52.70;;;;;;6038439;23;90534;-78
2023/09/02 13:56:43;;;;;;;;;;;;;;;;;;;;;
2023/09/02 13:59:42;;;;;;;1.15;0.50;;;33.90;55.10;;;;;;6081081;23;109753;-79
2023/09/02 14:02:49;;;;;;;5.07;0.57;;;34.00;54.00;;;;;;6055199;23;87932;-82
2023/09/02 14:05:46;;;;;;;3.30;0.40;;;34.00;55.80;;;;;;6063689;23;90652;-78
2023/09/02 14:08:55;;;;;;;1.05;0.30;;;34.20;56.00;;;;;;6066330;23;88594;-79
2023/09/02 14:11:59;;;;;;;2.13;0.40;;;34.30;56.80;;;;;;6072155;23;86148;-78
2023/09/02 14:14:35;;;;;;;;;;;;;;;;;;;;;
2023/09/02 14:17:04;;;;;;;2.45;0.30;;;34.30;55.90;;;;;;6096156;23;115093;-78
2023/09/02 14:19:35;;;;;;;3.33;0.60;;;34.10;54.80;;;;;;6071463;23;88617;-78
2023/09/02 14:29:13;;;;;;;4.28;0.60;;;33.70;56.40;;;;;;5951067;23;86810;-80
2023/09/02 14:32:35;;;;;;;1.05;0.35;;;33.40;58.00;;;;;;5950936;23;86671;-80
2023/09/02 14:36:00;;;;;;;1.67;0.47;;;33.30;57.70;;;;;;5922030;23;86929;-80
2023/09/02 14:42:13;;;;;;;1.75;0.55;;;32.90;57.10;;;;;;5883669;23;88472;-77
2023/09/02 14:44:40;;;;;;;7.20;0.50;;;32.70;59.80;;;;;;5923801;23;86103;-77
2023/09/02 14:47:09;;;;;;;1.25;0.50;;;32.70;59.90;;;;;;6004751;23;86264;-77
2023/09/02 14:49:35;;;;;;;1.80;0.50;;;32.80;60.00;;;;;;6009655;23;94025;-77
2023/09/02 14:52:03;;;;;;;0.50;0.40;;;32.70;59.90;;;;;;6035869;23;86998;-77
2023/09/02 14:54:31;;;;;;;1.83;0.60;;;32.70;61.00;;;;;;6010704;23;90123;-76
2023/09/02 14:56:57;;;;;;;4.47;1.00;;;32.60;60.70;;;;;;6008670;23;86245;-77
2023/09/02 14:59:24;;;;;;;1.50;0.45;;;32.50;61.10;;;;;;6005093;23;86532;-77
2023/09/02 15:01:51;;;;;;;1.65;0.45;;;32.50;62.00;;;;;;6004661;23;90638;-77
2023/09/02 15:04:19;;;;;;;2.25;0.32;;;32.50;61.10;;;;;;6003895;23;90193;-77
2023/09/02 15:06:54;;;;;;;0.70;0.47;;;32.50;62.10;;;;;;6028990;23;85948;-77
2023/09/02 15:09:38;;;;;;;1.25;0.35;;;32.50;62.70;;;;;;6035296;23;86356;-77
2023/09/02 15:12:06;;;;;;;1.33;0.60;;;32.60;62.70;;;;;;6070412;23;89128;-77
2023/09/02 15:14:34;;;;;;;2.50;0.60;;;32.80;62.20;;;;;;6091195;23;89805;-77
2023/09/02 15:17:07;;;;;;;1.17;0.60;;;32.90;63.10;;;;;;6080968;23;86863;-78
2023/09/02 15:19:34;;;;;;;;;;;33.10;61.30;;;;;;6096972;23;86073;-78
2023/09/02 15:22:01;;;;;;;3.67;0.90;;;33.30;60.70;;;;;;6100791;23;87393;-78
2023/09/02 15:24:35;;;;;;;3.30;0.90;;;33.40;60.50;;;;;;6095896;23;89309;-78
2023/09/02 15:27:03;;;;;;;2.00;0.60;;;33.50;59.40;;;;;;6095263;23;86796;-78
2023/09/02 15:29:39;;;;;;;;;;;;;;;;;;;;;
2023/09/02 15:32:05;;;;;;;2.10;0.55;;;33.90;58.60;;;;;;6081328;23;114572;-77
2023/09/02 15:34:31;;;;;;;1.40;0.60;;;34.00;56.90;;;;;;6097106;23;87576;-77
2023/09/02 15:37:02;;;;;;;3.35;0.50;;;34.00;57.30;;;;;;6099578;23;85997;-77
2023/09/02 15:39:28;;;;;;;5.38;1.52;;;34.10;58.10;;;;;;6070745;23;86519;-77
2023/09/02 15:41:55;;;;;;;2.05;0.63;;;34.30;59.30;;;;;;6084632;23;87461;-77
2023/09/02 15:44:21;;;;;;;1.08;0.47;;;34.60;57.80;;;;;;6091863;23;85826;-77
2023/09/02 15:46:47;;;;;;;0.90;0.50;;;34.90;57.50;;;;;;6065358;23;86162;-77
2023/09/02 15:49:13;;;;;;;1.73;0.40;;;35.10;56.00;;;;;;6067570;23;86261;-77
2023/09/02 15:51:39;;;;;;;2.70;0.50;;;35.40;55.60;;;;;;6065386;23;90362;-77
2023/09/02 15:54:05;;;;;;;0.93;0.40;;;35.50;55.60;;;;;;6064587;23;88448;-78
2023/09/02 15:56:31;;;;;;;1.88;0.50;;;35.50;54.90;;;;;;6092507;23;86134;-77
2023/09/02 15:58:58;;;;;;;4.00;0.60;;;35.60;54.50;;;;;;6093651;23;86345;-78
2023/09/02 16:01:23;;;;;;;3.70;0.60;;;35.80;54.20;;;;;;6071191;23;90397;-78
2023/09/02 16:03:52;;;;;;;2.50;0.68;;;36.00;54.60;;;;;;6101560;23;86919;-77
2023/09/02 16:06:25;;;;;;;1.30;0.60;;;36.10;54.10;;;;;;6098535;23;86146;-78
2023/09/02 16:08:51;;;;;;;0.55;0.40;;;36.20;54.10;;;;;;6097741;23;86115;-78
2023/09/02 16:11:20;;;;;;;1.63;0.40;;;36.40;53.40;;;;;;6097468;23;87779;-78
2023/09/02 16:13:48;;;;;;;1.15;0.60;;;36.50;52.90;;;;;;6098553;23;86684;-77
2023/09/02 16:16:14;;;;;;;1.35;0.43;;;36.60;52.50;;;;;;6073437;23;86457;-78
2023/09/02 16:18:46;;;;;;;2.53;0.90;;;36.60;53.00;;;;;;6098229;23;85863;-78
2023/09/02 16:21:28;;;;;;;5.85;1.30;;;36.60;52.20;;;;;;6085430;23;87991;-78
2023/09/02 16:23:55;;;;;;;4.30;0.90;;;36.60;52.40;;;;;;6072297;23;89211;-78
2023/09/02 16:26:21;;;;;;;9.68;0.98;;;36.70;51.70;;;;;;6098646;23;86055;-78
2023/09/02 16:28:47;;;;;;;3.85;0.80;;;36.70;51.10;;;;;;6098156;23;86248;-78
2023/09/02 16:31:21;;;;;;;1.77;0.60;;;36.60;52.50;;;;;;6099200;23;86618;-78
2023/09/02 16:33:47;;;;;;;1.27;0.50;;;36.60;52.70;;;;;;6072534;23;93146;-78
2023/09/02 16:36:16;;;;;;;1.73;0.60;;;36.50;53.10;;;;;;6059876;23;85803;-77
2023/09/02 16:39:25;;;;;;;1.38;0.50;;;36.40;51.90;;;;;;6086138;23;86181;-78
2023/09/02 16:42:25;;;;;;;2.38;0.80;;;36.40;52.80;;;;;;6009962;23;88845;-79
2023/09/02 16:48:42;;;;;;;2.30;0.60;;;36.40;53.10;;;;;;6064563;23;86251;-78
2023/09/02 16:54:56;;;;;;;;;;;;;;;;;;;;;
2023/09/02 16:57:39;;;;;;;0.93;0.82;;;36.20;50.90;;;;;;6082440;23;115637;-78
2023/09/02 17:00:19;;;;;;;4.18;1.83;;;36.10;51.80;;;;;;6071301;23;86144;-78
2023/09/02 17:03:08;;;;;;;5.97;2.80;;;35.70;53.00;;;;;;6085292;23;86147;-79
2023/09/02 17:06:10;;;;;;;5.05;3.20;;;35.50;53.70;;;;;;6058454;23;89722;-78
2023/09/02 17:08:59;;;;;;;;;;;;;;;;;;;;;
2023/09/02 17:11:34;;;;;;;3.70;3.40;;;34.90;55.00;;;;;;6082906;23;111313;-78
2023/09/02 17:14:28;;;;;;;;;;;;;;;;;;;;;
2023/09/02 17:17:07;;;;;;;4.45;4.15;;;34.60;55.60;;;;;;6097147;23;115611;-78
2023/09/02 17:19:35;;;;;;;9.35;6.38;;;34.30;56.10;;;;;;6094475;23;89797;-78
2023/09/02 17:22:02;;;;;;;7.38;6.68;;;33.80;56.70;;;;;;6097210;23;86410;-78